Tesla, West Virginia
Current Conditions -  °F | °C
As of 8:55 AM on Saturday 22 Nov 2014 (Local Time) from KW22 Reporting Station
Clear Clear  
Wind Chill: 34°   Ceiling: Unl
Heat Index: 34°   Visibility: 10mi
Dew Point:   Wind: 0mph
Humidity: 35%   Direction: NA
Pressure: 30.36"   Gusts: NA
Location:  38.5731°N, 80.7117°W
Report Text: KW22 221355Z AUTO 00000KT 10SM CLR 01/M13 A3036 RMK AO2
Loading
Personal Weather Stations






























Interactive Weather Map New forecast layout! Learn more

10-Day Weather Forecast

Advertisements
Track Severe Weather on mobile